createdAt,value
2018-12-03T00:01:18.942Z,98615.00
2018-12-03T00:03:53.740Z,98615.06
2018-12-03T00:06:24.544Z,98610.67
2018-12-03T00:08:56.014Z,98613.11
2018-12-03T00:11:26.667Z,98609.78
2018-12-03T00:13:58.069Z,98615.10
2018-12-03T00:16:32.018Z,98622.16
2018-12-03T00:19:02.733Z,98618.69
2018-12-03T00:21:34.273Z,98620.58
2018-12-03T00:24:06.358Z,98616.73
2018-12-03T00:26:37.665Z,98623.52
2018-12-03T00:29:08.568Z,98627.22
2018-12-03T00:31:39.663Z,98622.31
2018-12-03T00:34:11.667Z,98623.23
2018-12-03T00:36:42.362Z,98628.97
2018-12-03T00:39:13.228Z,98624.47
2018-12-03T00:41:44.663Z,98618.56
2018-12-03T00:44:16.468Z,98615.94
2018-12-03T00:46:47.247Z,98630.12
2018-12-03T00:49:18.859Z,98627.23
2018-12-03T00:51:49.672Z,98593.55
2018-12-03T00:54:22.080Z,98623.33
2018-12-03T00:56:52.695Z,98616.25
2018-12-03T00:59:23.451Z,98622.56
2018-12-03T01:01:55.382Z,98612.62
2018-12-03T01:04:26.105Z,98615.13
2018-12-03T01:06:57.206Z,98626.41
2018-12-03T01:09:28.935Z,98619.79
2018-12-03T01:11:59.942Z,98620.98
2018-12-03T01:14:30.953Z,98612.26
2018-12-03T01:17:02.702Z,98618.08
2018-12-03T01:19:33.507Z,98618.69
2018-12-03T01:22:04.151Z,98623.91
2018-12-03T01:24:34.704Z,98617.95
2018-12-03T01:27:06.143Z,98620.08
2018-12-03T01:29:37.000Z,98617.83
2018-12-03T01:32:08.639Z,98625.06
2018-12-03T01:34:39.478Z,98619.57
2018-12-03T01:37:11.223Z,98630.34
2018-12-03T01:39:45.508Z,98614.80
2018-12-03T01:42:16.679Z,98614.58
2018-12-03T01:44:47.264Z,98618.06
2018-12-03T01:47:18.094Z,98618.34
2018-12-03T01:49:49.685Z,98619.63
2018-12-03T01:52:20.239Z,98619.95
2018-12-03T01:54:54.301Z,98616.30
2018-12-03T01:57:24.860Z,98615.07
2018-12-03T01:59:55.797Z,98611.60
2018-12-03T02:02:26.476Z,98605.38
2018-12-03T02:04:57.921Z,98604.84
2018-12-03T02:07:28.907Z,98606.05
2018-12-03T02:09:59.460Z,98610.03
2018-12-03T02:12:31.381Z,98611.86
2018-12-03T02:15:01.942Z,98608.21
2018-12-03T02:17:34.535Z,98614.03
2018-12-03T02:20:08.223Z,98603.36
2018-12-03T02:22:38.719Z,98602.78
2018-12-03T02:25:10.110Z,98598.84
2018-12-03T02:27:43.560Z,98595.27
2018-12-03T02:30:23.017Z,98597.57
2018-12-03T02:32:56.801Z,98610.12
2018-12-03T02:35:32.451Z,98599.79
2018-12-03T02:38:05.452Z,98597.59
2018-12-03T02:40:36.535Z,98602.78
2018-12-03T02:43:09.531Z,98595.69
2018-12-03T02:45:41.441Z,98587.30
2018-12-03T02:48:15.195Z,98588.16
2018-12-03T02:50:47.570Z,98587.90
2018-12-03T02:53:20.139Z,98580.14
2018-12-03T02:55:51.720Z,98583.23
2018-12-03T02:58:22.523Z,98593.95
2018-12-03T03:00:55.516Z,98587.16
2018-12-03T03:03:26.105Z,98596.09
2018-12-03T03:06:02.407Z,98586.88
2018-12-03T03:08:35.543Z,98580.81
2018-12-03T03:11:07.143Z,98581.67
2018-12-03T03:13:38.004Z,98588.02
2018-12-03T03:16:08.567Z,98582.70
2018-12-03T03:18:39.244Z,98575.11
2018-12-03T03:21:09.805Z,98581.88
2018-12-03T03:23:40.585Z,98582.89
2018-12-03T03:26:11.474Z,98586.77
2018-12-03T03:28:41.923Z,98596.56
2018-12-03T03:31:12.689Z,98586.30
2018-12-03T03:33:43.621Z,98587.17
2018-12-03T03:36:14.272Z,98586.25
2018-12-03T03:38:44.780Z,98592.65
2018-12-03T03:41:15.692Z,98587.64
2018-12-03T03:43:45.994Z,98592.95
2018-12-03T03:46:16.863Z,98594.58
2018-12-03T03:48:47.411Z,98595.81
2018-12-03T03:51:18.263Z,98592.09
2018-12-03T03:53:49.129Z,98593.22
2018-12-03T03:56:22.081Z,98593.86
2018-12-03T03:58:52.795Z,98600.16
2018-12-03T04:01:26.036Z,98587.39
2018-12-03T04:03:57.089Z,98591.98
2018-12-03T04:06:29.623Z,98596.05
2018-12-03T04:09:00.770Z,98598.25
2018-12-03T04:11:32.899Z,98597.69
2018-12-03T04:14:06.220Z,98593.67
2018-12-03T04:16:38.697Z,98592.66
2018-12-03T04:19:09.759Z,98587.83
2018-12-03T04:21:40.350Z,98584.55
2018-12-03T04:24:11.392Z,98586.52
2018-12-03T04:26:44.740Z,98582.14
2018-12-03T04:29:21.612Z,98595.89
2018-12-03T04:31:55.259Z,98599.93
2018-12-03T04:34:26.126Z,98596.75
2018-12-03T04:36:56.810Z,98591.53
2018-12-03T04:39:30.310Z,98585.84
2018-12-03T04:42:01.079Z,98592.72
2018-12-03T04:44:31.781Z,98591.14
2018-12-03T04:47:02.843Z,98585.88
2018-12-03T04:49:33.400Z,98585.03
2018-12-03T04:52:04.006Z,98581.70
2018-12-03T04:54:34.553Z,98585.64
2018-12-03T04:57:07.986Z,98585.41
2018-12-03T04:59:41.113Z,98584.13
2018-12-03T05:02:12.367Z,98580.84
2018-12-03T05:04:43.240Z,98571.83
2018-12-03T05:07:15.826Z,98578.84
2018-12-03T05:09:46.951Z,98574.55
2018-12-03T05:12:21.150Z,98570.83
2018-12-03T05:14:53.839Z,98577.67
2018-12-03T05:17:24.645Z,98573.81
2018-12-03T05:19:55.356Z,98564.52
2018-12-03T05:22:25.957Z,98582.80
2018-12-03T05:24:56.750Z,98581.00
2018-12-03T05:27:29.967Z,98570.98
2018-12-03T05:30:03.686Z,98569.44
2018-12-03T05:32:38.139Z,98576.14
2018-12-03T05:35:16.776Z,98347.41
2018-12-03T05:37:54.049Z,98571.50
2018-12-03T05:40:33.102Z,98572.16
2018-12-03T05:43:05.569Z,98578.17
2018-12-03T05:45:38.307Z,98572.40
2018-12-03T05:48:11.284Z,98579.47
2018-12-03T05:50:42.396Z,98574.45
2018-12-03T05:53:13.280Z,98574.30
2018-12-03T05:55:44.802Z,98573.19
2018-12-03T05:58:15.820Z,98569.97
2018-12-03T06:00:48.360Z,98574.92
2018-12-03T06:03:19.255Z,98570.09
2018-12-03T06:05:58.339Z,98570.77
2018-12-03T06:08:29.326Z,98573.09
2018-12-03T06:11:02.459Z,98569.63
2018-12-03T06:13:35.477Z,98578.30
2018-12-03T06:16:06.484Z,98575.20
2018-12-03T06:18:40.808Z,98582.70
2018-12-03T06:21:11.366Z,98589.95
2018-12-03T06:23:41.923Z,98584.37
2018-12-03T06:26:12.955Z,98587.33
2018-12-03T06:28:48.259Z,98592.00
2018-12-03T06:31:19.452Z,98596.06
2018-12-03T06:33:50.619Z,98597.20
2018-12-03T06:36:24.304Z,98594.16
2018-12-03T06:38:57.494Z,98588.55
2018-12-03T06:41:29.572Z,98586.91
2018-12-03T06:44:01.791Z,98590.09
2018-12-03T06:46:32.162Z,98593.05
2018-12-03T06:49:03.024Z,98590.85
2018-12-03T06:51:33.995Z,98589.87
2018-12-03T06:54:04.421Z,98601.96
2018-12-03T06:56:34.930Z,98600.50
2018-12-03T06:59:06.207Z,98598.41
2018-12-03T07:01:36.882Z,98602.61
2018-12-03T07:04:07.878Z,98604.46
2018-12-03T07:06:38.396Z,98600.48
2018-12-03T07:09:11.700Z,98599.80
2018-12-03T07:11:42.342Z,98598.45
2018-12-03T07:14:16.750Z,98590.22
2018-12-03T07:16:49.624Z,98599.52
2018-12-03T07:19:20.725Z,98599.02
2018-12-03T07:21:53.859Z,98606.36
2018-12-03T07:24:24.860Z,98606.38
2018-12-03T07:26:57.591Z,98605.27
2018-12-03T07:29:29.008Z,98602.89
2018-12-03T07:31:59.812Z,98595.98
2018-12-03T07:34:38.502Z,98599.55
2018-12-03T07:37:10.495Z,98596.38
2018-12-03T07:39:42.824Z,98594.28
2018-12-03T07:42:13.466Z,98592.36
2018-12-03T07:44:44.906Z,98590.87
2018-12-03T07:47:16.856Z,98584.51
2018-12-03T07:49:48.912Z,98591.58
2018-12-03T07:52:19.291Z,98592.28
2018-12-03T07:54:50.417Z,98581.20
2018-12-03T07:57:21.318Z,98584.63
2018-12-03T07:59:51.979Z,98570.74
2018-12-03T08:02:22.645Z,98570.81
2018-12-03T08:04:52.931Z,98576.97
2018-12-03T08:07:23.806Z,98575.31
2018-12-03T08:09:54.675Z,98578.64
2018-12-03T08:12:25.503Z,98569.48
2018-12-03T08:14:56.339Z,98581.64
2018-12-03T08:17:27.216Z,98583.36
2018-12-03T08:19:57.870Z,98578.00
2018-12-03T08:22:28.538Z,98577.08
2018-12-03T08:25:01.707Z,98573.58
2018-12-03T08:27:35.897Z,98582.77
2018-12-03T08:30:11.763Z,98588.31
2018-12-03T08:32:44.958Z,98581.61
2018-12-03T08:35:17.448Z,98584.94
2018-12-03T08:37:49.081Z,98591.42
2018-12-03T08:40:20.646Z,98594.12
2018-12-03T08:42:59.950Z,98596.64
2018-12-03T08:45:32.940Z,98597.94
2018-12-03T08:48:03.707Z,98592.73
2018-12-03T08:50:42.792Z,98596.84
2018-12-03T08:53:14.129Z,98602.88
2018-12-03T08:55:48.974Z,98600.92
2018-12-03T08:58:21.571Z,98598.05
2018-12-03T09:00:52.412Z,98595.95
2018-12-03T09:03:25.452Z,98599.89
2018-12-03T09:05:57.507Z,98604.58
2018-12-03T09:08:30.222Z,98609.00
2018-12-03T09:11:02.252Z,98597.47
2018-12-03T09:13:33.212Z,98587.62
2018-12-03T09:16:05.455Z,98591.20
2018-12-03T09:18:39.976Z,98599.36
2018-12-03T09:21:16.407Z,98601.06
2018-12-03T09:23:51.191Z,98594.80
2018-12-03T09:26:22.955Z,98590.64
2018-12-03T09:28:54.237Z,98593.11
2018-12-03T09:31:26.735Z,98599.19
2018-12-03T09:33:59.580Z,98597.60
2018-12-03T09:36:30.571Z,98588.92
2018-12-03T09:39:12.188Z,98592.28
2018-12-03T09:41:45.443Z,98582.41
2018-12-03T09:44:18.102Z,98582.81
2018-12-03T09:46:48.985Z,98588.64
2018-12-03T09:49:19.764Z,98590.02
2018-12-03T09:51:55.586Z,98596.56
2018-12-03T09:54:26.933Z,98596.13
2018-12-03T09:56:57.282Z,98586.72
2018-12-03T09:59:30.649Z,98582.56
2018-12-03T10:02:02.843Z,98585.16
2018-12-03T10:04:39.595Z,98583.34
2018-12-03T10:07:18.748Z,98582.50
2018-12-03T10:09:50.651Z,98586.20
2018-12-03T10:12:21.914Z,98573.17
2018-12-03T10:14:55.132Z,98569.09
2018-12-03T10:17:26.049Z,98556.66
2018-12-03T10:19:56.600Z,98555.94
2018-12-03T10:22:27.587Z,98562.62
2018-12-03T10:25:00.625Z,98560.46
2018-12-03T10:27:31.880Z,98562.26
2018-12-03T10:30:02.982Z,98559.30
2018-12-03T10:32:38.838Z,98553.83
2018-12-03T10:35:13.062Z,98557.22
2018-12-03T10:37:46.595Z,98563.27
2018-12-03T10:40:19.311Z,98553.06
2018-12-03T10:42:50.773Z,98553.14
2018-12-03T10:45:26.127Z,98556.88
2018-12-03T10:47:57.164Z,98554.45
2018-12-03T10:50:30.674Z,98562.09
2018-12-03T10:53:02.950Z,98549.22
2018-12-03T10:55:33.761Z,98552.72
2018-12-03T10:58:06.997Z,98562.28
2018-12-03T11:00:45.223Z,98562.01
2018-12-03T11:03:27.905Z,98556.55
2018-12-03T11:06:08.831Z,98556.39
2018-12-03T11:08:41.803Z,98550.95
2018-12-03T11:11:16.333Z,98549.97
2018-12-03T11:13:52.049Z,98558.30
2018-12-03T11:16:31.493Z,98543.24
2018-12-03T11:19:11.232Z,98549.61
2018-12-03T11:21:44.859Z,98555.70
2018-12-03T11:24:17.840Z,98550.77
2018-12-03T11:26:51.177Z,98544.48
2018-12-03T11:29:23.160Z,98535.30
2018-12-03T11:31:56.963Z,98528.88
2018-12-03T11:34:27.667Z,98527.16
2018-12-03T11:37:01.778Z,98527.88
2018-12-03T11:39:58.678Z,98519.31
2018-12-03T11:42:33.116Z,98527.52
2018-12-03T11:45:08.071Z,98510.91
2018-12-03T11:47:39.905Z,98321.81
2018-12-03T11:50:12.471Z,98499.91
2018-12-03T11:52:49.614Z,98509.09
2018-12-03T11:55:20.853Z,98508.80
2018-12-03T11:57:52.139Z,98516.20
2018-12-03T12:00:29.260Z,98521.99
2018-12-03T12:03:01.971Z,98508.53
2018-12-03T12:05:33.715Z,98516.66
2018-12-03T12:08:09.306Z,98526.83
2018-12-03T12:10:39.865Z,98521.59
2018-12-03T12:13:13.002Z,98521.89
2018-12-03T12:15:45.990Z,98524.36
2018-12-03T12:18:17.059Z,98525.08
2018-12-03T12:20:55.415Z,98510.72
2018-12-03T12:23:26.668Z,98499.05
2018-12-03T12:25:57.981Z,98502.98
2018-12-03T12:28:28.620Z,98495.75
2018-12-03T12:30:58.879Z,98497.33
2018-12-03T12:33:30.217Z,98496.61
2018-12-03T12:36:00.872Z,98487.25
2018-12-03T12:38:31.528Z,98475.96
2018-12-03T12:41:02.094Z,98471.47
2018-12-03T12:43:32.343Z,98468.08
2018-12-03T12:46:09.658Z,98461.66
2018-12-03T12:48:40.199Z,98459.20
2018-12-03T12:51:13.769Z,98460.56
2018-12-03T12:53:50.607Z,98464.55
2018-12-03T12:56:24.047Z,98467.88
2018-12-03T12:58:58.944Z,98453.08
2018-12-03T13:01:30.887Z,98471.95
2018-12-03T13:04:02.416Z,98458.70
2018-12-03T13:06:33.287Z,98462.73
2018-12-03T13:09:09.744Z,98454.05
2018-12-03T13:11:41.456Z,98459.53
2018-12-03T13:14:14.757Z,98454.20
2018-12-03T13:16:47.839Z,98448.23
2018-12-03T13:19:21.409Z,98446.61
2018-12-03T13:21:52.972Z,98433.39
2018-12-03T13:24:25.097Z,98435.28
2018-12-03T13:26:56.189Z,98437.87
2018-12-03T13:29:27.340Z,98441.05
2018-12-03T13:32:01.083Z,98443.01
2018-12-03T13:34:38.395Z,98458.06
2018-12-03T13:37:14.366Z,98448.53
2018-12-03T13:39:47.223Z,98447.98
2018-12-03T13:42:18.510Z,98458.62
2018-12-03T13:44:51.122Z,98452.17
2018-12-03T13:47:25.334Z,98450.58
2018-12-03T13:49:58.242Z,98447.56
2018-12-03T13:52:34.749Z,98439.81
2018-12-03T13:55:08.762Z,98443.91
2018-12-03T13:57:39.842Z,98441.11
2018-12-03T14:00:26.809Z,98443.66
2018-12-03T14:03:09.359Z,98455.71
2018-12-03T14:05:48.692Z,98464.91
2018-12-03T14:10:05.117Z,98458.12
2018-12-03T14:12:45.108Z,98456.89
2018-12-03T14:15:34.299Z,98277.78
2018-12-03T14:18:20.765Z,98466.80
2018-12-03T14:20:53.955Z,98465.43
2018-12-03T14:23:30.588Z,98474.16
2018-12-03T14:26:02.617Z,98475.20
2018-12-03T14:28:35.519Z,98474.18
2018-12-03T14:31:07.279Z,98471.23
2018-12-03T14:33:37.607Z,98478.33
2018-12-03T14:36:13.965Z,98492.86
2018-12-03T14:38:44.453Z,98460.17
2018-12-03T14:41:17.625Z,98497.73
2018-12-03T14:43:48.895Z,98499.28
2018-12-03T14:46:22.938Z,98509.31
2018-12-03T14:48:55.795Z,98509.77
2018-12-03T14:51:27.287Z,98507.46
2018-12-03T14:54:02.795Z,98503.43
2018-12-03T14:56:33.768Z,98494.98
2018-12-03T14:59:06.312Z,98496.72
2018-12-03T15:01:38.318Z,98505.73
2018-12-03T15:04:12.254Z,98522.38
2018-12-03T15:06:48.781Z,98509.11
2018-12-03T15:09:21.983Z,98506.47
2018-12-03T15:11:55.650Z,98524.29
2018-12-03T15:14:26.519Z,98518.06
2018-12-03T15:16:57.497Z,98519.66
2018-12-03T15:19:28.317Z,98518.41
2018-12-03T15:21:58.872Z,98517.69
2018-12-03T15:24:29.355Z,98516.95
2018-12-03T15:27:00.199Z,98517.60
2018-12-03T15:29:31.355Z,98507.31
2018-12-03T15:32:04.670Z,98521.02
2018-12-03T15:34:38.867Z,98529.10
2018-12-03T15:37:12.455Z,98525.75
2018-12-03T15:39:44.882Z,98511.15
2018-12-03T15:42:17.511Z,98515.19
2018-12-03T15:44:53.280Z,98517.27
2018-12-03T15:47:25.660Z,98514.39
2018-12-03T15:50:06.646Z,98504.51
2018-12-03T15:52:38.963Z,98514.73
2018-12-03T15:55:14.459Z,98522.95
2018-12-03T15:57:57.806Z,98525.94
2018-12-03T16:00:31.769Z,98516.61
2018-12-03T16:03:04.929Z,98513.81
2018-12-03T16:05:37.020Z,98527.57
2018-12-03T16:08:09.800Z,98518.98
2018-12-03T16:10:40.536Z,98537.78
2018-12-03T16:13:14.246Z,98535.92
2018-12-03T16:15:46.301Z,98531.87
2018-12-03T16:18:18.082Z,98536.16
2018-12-03T16:20:49.232Z,98531.58
2018-12-03T16:23:20.215Z,98541.35
2018-12-03T16:25:53.610Z,98532.89
2018-12-03T16:28:27.329Z,98536.30
2018-12-03T16:30:58.412Z,98530.64
2018-12-03T16:33:31.744Z,98520.25
2018-12-03T16:36:02.862Z,98515.64
2018-12-03T16:38:35.840Z,98516.60
2018-12-03T16:41:12.155Z,98512.53
2018-12-03T16:43:42.962Z,98514.99
2018-12-03T16:49:18.555Z,98521.66
2018-12-03T16:51:50.958Z,98528.55
2018-12-03T16:54:21.888Z,98509.52
2018-12-03T16:56:55.349Z,98509.63
2018-12-03T16:59:27.519Z,98511.53
2018-12-03T17:02:03.130Z,98498.75
2018-12-03T17:04:36.906Z,98501.70
2018-12-03T17:07:15.684Z,98508.66
2018-12-03T17:09:48.399Z,98517.82
2018-12-03T17:12:23.924Z,98509.66
2018-12-03T17:14:55.845Z,98515.44
2018-12-03T17:17:27.759Z,98515.64
2018-12-03T17:20:00.499Z,98509.32
2018-12-03T17:22:45.171Z,98506.17
2018-12-03T17:25:26.006Z,98499.81
2018-12-03T17:28:02.233Z,98503.60
2018-12-03T17:30:35.533Z,98507.51
2018-12-03T17:33:06.643Z,98496.66
2018-12-03T17:35:38.379Z,98489.38
2018-12-03T17:38:11.830Z,98488.36
2018-12-03T17:40:47.129Z,98495.03
2018-12-03T17:43:24.559Z,98497.37
2018-12-03T17:45:55.800Z,98493.45
2018-12-03T17:48:27.449Z,98487.13
2018-12-03T17:51:03.159Z,98489.02
2018-12-03T17:53:37.387Z,98487.49
2018-12-03T17:56:13.657Z,98490.17
2018-12-03T17:58:46.845Z,98487.67
2018-12-03T18:01:19.591Z,98485.29
2018-12-03T18:03:51.312Z,98474.51
2018-12-03T18:06:23.757Z,98489.09
2018-12-03T18:08:54.621Z,98478.70
2018-12-03T18:11:27.638Z,98479.42
2018-12-03T18:13:59.132Z,98475.86
2018-12-03T18:16:39.491Z,98480.84
2018-12-03T18:19:12.135Z,98469.25
2018-12-03T18:21:45.176Z,98463.11
2018-12-03T18:24:24.597Z,98469.09
2018-12-03T18:26:57.710Z,98465.10
2018-12-03T18:29:28.416Z,98470.66
2018-12-03T18:31:59.077Z,98473.68
2018-12-03T18:34:29.788Z,98475.55
2018-12-03T18:37:03.783Z,98471.91
2018-12-03T18:39:36.954Z,98481.16
2018-12-03T18:42:10.531Z,98483.27
2018-12-03T18:44:44.017Z,98477.84
2018-12-03T18:47:16.085Z,98482.64
2018-12-03T18:49:49.857Z,98486.28
2018-12-03T18:52:23.134Z,98490.54
2018-12-03T18:54:55.009Z,98511.39
2018-12-03T18:57:26.167Z,98489.33
2018-12-03T18:59:58.902Z,98476.52
2018-12-03T19:02:31.734Z,98463.03
2018-12-03T19:05:05.418Z,98463.49
2018-12-03T19:07:43.223Z,98455.43
2018-12-03T19:10:26.201Z,98455.61
2018-12-03T19:12:57.119Z,98458.12
2018-12-03T19:15:34.502Z,98457.46
2018-12-03T19:18:07.170Z,98459.89
2018-12-03T19:20:46.701Z,98450.91
2018-12-03T19:23:20.729Z,98465.55
2018-12-03T19:25:58.970Z,98474.63
2018-12-03T19:28:30.950Z,98467.28
2018-12-03T19:31:05.107Z,98465.66
2018-12-03T19:34:13.252Z,98455.00
2018-12-03T19:36:44.819Z,98447.98
2018-12-03T19:39:15.667Z,98447.66
2018-12-03T19:41:52.482Z,98455.37
2018-12-03T19:44:25.639Z,98459.70
2018-12-03T19:47:01.895Z,98461.39
2018-12-03T19:49:32.669Z,98448.27
2018-12-03T19:52:04.122Z,98435.73
2018-12-03T19:54:36.347Z,98429.48
2018-12-03T19:57:10.087Z,98422.10
2018-12-03T19:59:48.088Z,98417.81
2018-12-03T20:02:20.583Z,98411.06
2018-12-03T20:04:54.836Z,98416.18
2018-12-03T20:07:27.718Z,98419.91
2018-12-03T20:10:01.193Z,98419.61
2018-12-03T20:12:34.167Z,98413.80
2018-12-03T20:15:07.222Z,98423.08
2018-12-03T20:17:41.152Z,98430.87
2018-12-03T20:20:18.157Z,98427.05
2018-12-03T20:22:57.796Z,98403.47
2018-12-03T20:25:40.322Z,98402.19
2018-12-03T20:28:16.023Z,98393.45
2018-12-03T20:31:12.299Z,98392.91
2018-12-03T20:34:01.643Z,98384.38
2018-12-03T20:39:05.313Z,98380.09
2018-12-03T20:41:44.798Z,98392.83
2018-12-03T20:44:31.526Z,98397.36
2018-12-03T20:47:26.782Z,98399.24
2018-12-03T20:51:06.628Z,98386.00
2018-12-03T20:53:46.496Z,98389.62
2018-12-03T20:56:19.483Z,98390.82
2018-12-03T20:58:50.304Z,98373.82
2018-12-03T21:01:21.043Z,98373.41
2018-12-03T21:03:55.756Z,98385.98
2018-12-03T21:06:27.359Z,98373.35
2018-12-03T21:09:00.054Z,98368.28
2018-12-03T21:11:31.379Z,98365.81
2018-12-03T21:14:06.300Z,98368.73
2018-12-03T21:16:38.277Z,98358.70
2018-12-03T21:19:18.369Z,98356.66
2018-12-03T21:21:54.964Z,98357.14
2018-12-03T21:24:26.205Z,98343.22
2018-12-03T21:26:56.776Z,98330.16
2018-12-03T21:29:27.895Z,98349.54
2018-12-03T21:32:06.642Z,98344.27
2018-12-03T21:34:37.568Z,98339.97
2018-12-03T21:37:08.988Z,98342.62
2018-12-03T21:39:48.045Z,98347.95
2018-12-03T21:42:15.978Z,98336.34
2018-12-03T21:44:46.899Z,98335.50
2018-12-03T21:47:18.456Z,98337.08
2018-12-03T21:49:50.436Z,98334.05
2018-12-03T21:52:27.658Z,98336.52
2018-12-03T21:55:00.872Z,98332.73
2018-12-03T21:57:31.279Z,98324.30
2018-12-03T22:00:06.628Z,98323.41
2018-12-03T22:02:38.316Z,98321.63
2018-12-03T22:05:11.647Z,98312.12
2018-12-03T22:07:59.818Z,98307.59
2018-12-03T22:10:31.570Z,98306.84
2018-12-03T22:13:03.871Z,98296.84
2018-12-03T22:15:37.340Z,98316.27
2018-12-03T22:18:08.103Z,98318.02
2018-12-03T22:20:38.703Z,98319.03
2018-12-03T22:23:09.299Z,98317.77
2018-12-03T22:25:39.949Z,98309.78
2018-12-03T22:28:16.481Z,98309.73
2018-12-03T22:30:50.271Z,98313.45
2018-12-03T22:33:23.972Z,98310.14
2018-12-03T22:35:56.780Z,98318.31
2018-12-03T22:38:28.931Z,98303.66
2018-12-03T22:41:01.880Z,98301.27
2018-12-03T22:43:34.889Z,98307.52
2018-12-03T22:46:09.786Z,98305.84
2018-12-03T22:48:43.051Z,98301.00
2018-12-03T22:51:17.078Z,98305.16
2018-12-03T22:53:49.927Z,98303.83
2018-12-03T22:56:21.262Z,98293.68
2018-12-03T22:58:54.068Z,98300.95
2018-12-03T23:01:26.836Z,98300.62
2018-12-03T23:04:00.646Z,98301.16
2018-12-03T23:06:34.072Z,98293.59
2018-12-03T23:09:09.586Z,98298.16
2018-12-03T23:11:48.895Z,98296.26
2018-12-03T23:14:21.833Z,98300.71
2018-12-03T23:16:53.567Z,98298.34
2018-12-03T23:19:26.311Z,98304.52
2018-12-03T23:21:58.322Z,98304.97
2018-12-03T23:24:32.114Z,98292.02
2018-12-03T23:27:05.312Z,98294.58
2018-12-03T23:29:38.056Z,98294.16
2018-12-03T23:32:11.334Z,98284.10
2018-12-03T23:34:42.079Z,98279.67
2018-12-03T23:37:13.899Z,98277.77
2018-12-03T23:39:46.856Z,98282.08
2018-12-03T23:42:19.404Z,98287.13
2018-12-03T23:44:50.952Z,98293.55
2018-12-03T23:47:25.444Z,98291.20
2018-12-03T23:49:57.515Z,98295.40
2018-12-03T23:52:28.250Z,98302.95
2018-12-03T23:54:59.558Z,98312.77
2018-12-03T23:57:31.369Z,98312.07
